Weather at Đảo Phan Vinh (Pearson Reef B) Helipad

Public forecast

Using degrees Celsius for public forecast. Weather courtesy of forecast.io.

Closest aviation weather report (METAR) to Đảo Phan Vinh (Pearson Reef B) Helipad

Closest report is Puerto Princesa International Airport / PAF Antonio Bautista Air Base, 306.1 nm (566.9 km) E.

2024/06/19 15:00 (retrieved 2 hours ago)

RPVP 191500Z 30008KT 9999 FEW019 OVC080 26/25 Q1008 RERA RMK A2977

Closest aviation forecast (TAF) to Đảo Phan Vinh (Pearson Reef B) Helipad

Closest forecast is Puerto Princesa International Airport / PAF Antonio Bautista Air Base, 306.1 nm (566.9 km) E.

2024/06/19 12:00 (retrieved 5 hours ago)

TAF RPVP 191100Z 1912/2012 18006KT 9999 FEW019 SCT080 TEMPO 1912/1918 32004KT -SHRA FEW017CB SCT019 BKN080 TEMPO 1918/1924 27006KT